Time;durP1;ratioP1;P1;durP2;ratioP2;P2;SDS_P1;SDS_P2;PMS_P1;PMS_P2;Temp;Humidity;BMP_temperature;BMP_pressure;BME280_temperature;BME280_humidity;BME280_pressure;Samples;Min_cycle;Max_cycle;Signal;HPM_P1;HPM_P2
2022/08/11 00:01:47;;;;;;;;;;;;;;;15.08;55.91;100034.91;5053691;28;20030;-83
2022/08/11 00:04:14;;;;;;;;;;;;;;;15.01;55.80;100039.69;5053649;28;19964;-82
2022/08/11 00:06:42;;;;;;;;;;;;;;;14.94;56.09;100044.50;5054468;28;19933;-82
2022/08/11 00:09:11;;;;;;;;;;;;;;;14.90;56.63;100052.28;5053330;28;19975;-82
2022/08/11 00:11:40;;;;;;;;;;;;;;;14.88;56.60;100051.72;5070122;28;20035;-82
2022/08/11 00:14:16;;;;;;;;;;;;;;;14.86;56.81;100053.03;5054427;28;19929;-82
2022/08/11 00:16:45;;;;;;;;;;;;;;;14.78;57.03;100058.88;5054145;28;19932;-83
2022/08/11 00:19:12;;;;;;;;;;;;;;;14.69;57.18;100051.16;5053249;28;19929;-82
2022/08/11 00:21:39;;;;;;;;;;;;;;;14.67;57.55;100055.19;5052975;28;19928;-82
2022/08/11 00:24:36;;;;;;;;;;;;;;;14.65;57.71;100051.88;5053520;28;19933;-82
2022/08/11 00:27:30;;;;;;;;;;;;;;;14.70;58.35;100057.41;5054507;28;19935;-82
2022/08/11 00:29:57;;;;;;;;;;;;;;;14.74;58.69;100056.66;5053852;28;19936;-83
2022/08/11 00:32:24;;;;;;;;;;;;;;;14.79;58.39;100061.38;5054178;28;20027;-82
2022/08/11 00:34:51;;;;;;;;;;;;;;;14.80;58.31;100064.91;5052597;28;19928;-83
2022/08/11 00:37:38;;;;;;;;;;;;;;;14.82;58.90;100058.16;5053181;28;19935;-82
2022/08/11 00:40:09;;;;;;;;;;;;;;;14.79;59.37;100060.56;5033955;28;19933;-83
2022/08/11 00:42:45;;;;;;;;;;;;;;;14.66;59.50;100062.50;5016202;28;19983;-83
2022/08/11 00:45:26;;;;;;;;;;;;;;;14.64;59.71;100067.38;5033093;28;20373;-81
2022/08/11 00:48:12;;;;;;;;;;;;;;;14.56;60.04;100067.78;5032774;28;19975;-83
2022/08/11 00:50:39;;;;;;;;;;;;;;;14.48;60.62;100066.25;5033749;28;19929;-82
2022/08/11 00:53:12;;;;;;;;;;;;;;;14.46;60.40;100068.38;5033601;28;19933;-82
2022/08/11 00:55:43;;;;;;;;;;;;;;;14.53;60.27;100065.53;5033967;28;19999;-83
2022/08/11 00:58:28;;;;;;;;;;;;;;;14.46;60.64;100064.84;5033798;28;20466;-82
2022/08/11 01:01:02;;;;;;;;;;;;;;;14.41;60.93;100070.19;5033680;28;20023;-83
2022/08/11 01:03:33;;;;;;;;;;;;;;;14.35;61.17;100071.13;5033707;28;19977;-82
2022/08/11 01:06:19;;;;;;;;;;;;;;;14.28;60.92;100076.69;5031537;28;19983;-82
2022/08/11 01:09:11;;;;;;;;;;;;;;;14.16;61.48;100073.25;5033321;28;20040;-82
2022/08/11 01:12:07;;;;;;;;;;;;;;;14.09;62.18;100084.22;5017219;28;19936;-81
2022/08/11 01:14:43;;;;;;;;;;;;;;;14.04;62.50;100076.81;5032303;28;20396;-82
2022/08/11 01:17:13;;;;;;;;;;;;;;;14.06;62.48;100087.44;5033457;28;19928;-81
2022/08/11 01:19:52;;;;;;;;;;;;;;;14.12;62.72;100082.91;5033405;28;19929;-82
2022/08/11 01:22:39;;;;;;;;;;;;;;;14.20;62.35;100085.25;5032028;28;20030;-83
2022/08/11 01:25:12;;;;;;;;;;;;;;;14.17;62.33;100083.84;5031991;28;20027;-84
2022/08/11 01:27:39;;;;;;;;;;;;;;;14.16;62.71;100092.25;5045786;28;20399;-83
2022/08/11 01:30:24;;;;;;;;;;;;;;;14.17;62.75;100094.69;5053236;28;20403;-83
2022/08/11 01:33:02;;;;;;;;;;;;;;;14.27;62.44;100089.47;5052893;28;19932;-83
2022/08/11 01:35:33;;;;;;;;;;;;;;;14.31;62.44;100095.25;5052971;28;19942;-82
2022/08/11 01:38:21;;;;;;;;;;;;;;;14.32;62.64;100091.47;5051666;28;19929;-81
2022/08/11 01:41:00;;;;;;;;;;;;;;;14.23;62.97;100090.19;5052673;28;20315;-82
2022/08/11 01:46:32;;;;;;;;;;;;;;;14.29;63.23;100087.34;5043315;28;20138;-83
2022/08/11 01:49:20;;;;;;;;;;;;;;;14.24;63.36;100087.25;5040868;28;19936;-83
2022/08/11 01:52:36;;;;;;;;;;;;;;;14.14;63.84;100089.75;5044238;28;19933;-85
2022/08/11 01:55:06;;;;;;;;;;;;;;;14.09;63.82;100095.91;5032814;28;20438;-84
2022/08/11 01:57:35;;;;;;;;;;;;;;;14.19;63.78;100099.91;5039643;28;20019;-81
2022/08/11 02:00:07;;;;;;;;;;;;;;;14.15;63.84;100106.88;5034479;28;19935;-83
2022/08/11 02:02:46;;;;;;;;;;;;;;;14.05;63.99;100102.06;5033176;28;19952;-83
2022/08/11 02:05:16;;;;;;;;;;;;;;;14.02;64.34;100102.53;5050905;28;19928;-83
2022/08/11 02:07:49;;;;;;;;;;;;;;;14.02;64.41;100103.34;5044053;28;19929;-84
2022/08/11 02:13:45;;;;;;;;;;;;;;;14.20;64.50;100098.81;5034086;28;20308;-83
2022/08/11 02:16:23;;;;;;;;;;;;;;;14.22;64.37;100108.38;5031451;28;20028;-85
2022/08/11 02:24:49;;;;;;;;;;;;;;;14.20;64.35;100109.69;5044477;28;19968;-83
2022/08/11 02:27:20;;;;;;;;;;;;;;;14.20;64.70;100104.25;5031937;28;20404;-83
2022/08/11 02:30:06;;;;;;;;;;;;;;;14.24;64.91;100114.38;5053268;28;20384;-83
2022/08/11 02:35:31;;;;;;;;;;;;;;;14.23;64.73;100118.19;5052628;28;19928;-82
2022/08/11 02:38:13;;;;;;;;;;;;;;;14.24;64.75;100117.09;5050597;28;20236;-81
2022/08/11 02:40:52;;;;;;;;;;;;;;;14.27;64.68;100118.50;5049829;28;19936;-83
2022/08/11 02:43:26;;;;;;;;;;;;;;;14.27;64.97;100115.78;5050315;28;20311;-82
2022/08/11 02:46:02;;;;;;;;;;;;;;;14.31;65.09;100112.38;5049814;28;19929;-83
2022/08/11 02:51:32;;;;;;;;;;;;;;;14.43;64.98;100125.91;5035661;28;20382;-84
2022/08/11 02:54:19;;;;;;;;;;;;;;;14.48;64.91;100125.16;5050905;28;20424;-82
2022/08/11 02:56:51;;;;;;;;;;;;;;;14.57;64.78;100129.16;5050849;28;19928;-84
2022/08/11 03:02:22;;;;;;;;;;;;;;;14.68;64.39;100136.41;5050160;28;19933;-85
2022/08/11 03:05:08;;;;;;;;;;;;;;;14.74;64.14;100143.63;5060576;28;19935;-84
2022/08/11 03:08:02;;;;;;;;;;;;;;;14.79;64.18;100144.78;5067125;28;19935;-85
2022/08/11 03:16:44;;;;;;;;;;;;;;;15.18;63.62;100151.97;5007545;28;20416;-83
2022/08/11 03:19:52;;;;;;;;;;;;;;;15.29;63.33;100142.09;4974021;28;20563;-84
2022/08/11 03:22:24;;;;;;;;;;;;;;;15.36;63.24;100139.19;4998810;28;20351;-84
2022/08/11 03:25:01;;;;;;;;;;;;;;;15.43;63.10;100149.91;5008020;28;19929;-87
2022/08/11 03:27:49;;;;;;;;;;;;;;;15.53;62.85;100150.06;4993537;28;19936;-83
2022/08/11 03:30:42;;;;;;;;;;;;;;;15.59;62.73;100147.16;5013204;28;19937;-84
2022/08/11 03:36:19;;;;;;;;;;;;;;;15.74;62.52;100154.75;4646572;28;9999978;-84
2022/08/11 03:38:47;;;;;;;;;;;;;;;15.82;62.51;100148.91;5005491;28;19940;-82
2022/08/11 03:41:44;;;;;;;;;;;;;;;15.88;62.30;100151.69;5007422;28;20406;-84
2022/08/11 03:44:39;;;;;;;;;;;;;;;15.99;62.12;100142.56;5006672;28;19973;-86
2022/08/11 03:47:06;;;;;;;;;;;;;;;16.10;61.87;100140.78;5004117;28;20334;-86
2022/08/11 03:49:38;;;;;;;;;;;;;;;16.19;61.65;100144.72;5021905;28;19986;-85
2022/08/11 03:52:26;;;;;;;;;;;;;;;16.28;61.46;100142.38;5041346;28;20315;-82
2022/08/11 03:54:55;;;;;;;;;;;;;;;16.35;61.00;100145.72;5047614;28;19932;-87
2022/08/11 03:57:25;;;;;;;;;;;;;;;16.39;60.94;100149.59;5048387;28;19932;-86
2022/08/11 04:00:13;;;;;;;;;;;;;;;16.46;61.02;100153.78;5049461;28;19960;-86
2022/08/11 04:02:51;;;;;;;;;;;;;;;16.55;61.13;100156.84;5050913;28;19928;-85
2022/08/11 04:05:24;;;;;;;;;;;;;;;16.62;60.77;100157.47;5051136;28;19928;-82
2022/08/11 04:08:10;;;;;;;;;;;;;;;16.78;60.64;100165.84;5050604;28;19928;-84
2022/08/11 04:10:55;;;;;;;;;;;;;;;16.84;60.33;100160.19;5049806;28;20027;-82
2022/08/11 04:13:26;;;;;;;;;;;;;;;16.90;60.32;100169.25;5050328;28;19964;-84
2022/08/11 04:16:13;;;;;;;;;;;;;;;16.92;60.18;100161.63;5048321;28;19928;-85
2022/08/11 04:19:02;;;;;;;;;;;;;;;16.95;60.01;100163.84;5065050;28;19928;-84
2022/08/11 04:21:49;;;;;;;;;;;;;;;17.00;60.02;100160.34;5048632;28;19960;-83
2022/08/11 04:24:23;;;;;;;;;;;;;;;17.07;59.69;100164.50;5048954;28;20457;-81
2022/08/11 04:27:23;;;;;;;;;;;;;;;17.13;59.63;100161.81;5065380;28;20057;-84
2022/08/11 04:30:07;;;;;;;;;;;;;;;17.21;59.53;100164.06;5064214;28;20327;-85
2022/08/11 04:32:52;;;;;;;;;;;;;;;17.30;59.23;100166.06;5048341;28;20027;-87
2022/08/11 04:35:19;;;;;;;;;;;;;;;17.40;58.90;100167.22;5049202;28;19937;-82
2022/08/11 04:37:56;;;;;;;;;;;;;;;17.53;58.82;100161.31;5048448;28;20466;-83
2022/08/11 04:40:23;;;;;;;;;;;;;;;17.60;58.61;100158.34;5047975;28;19929;-83
2022/08/11 04:45:57;;;;;;;;;;;;;;;17.83;58.23;100166.19;5047822;28;20524;-83
2022/08/11 05:03:22;;;;;;;;;;;;;;;18.15;56.84;100168.81;5048252;28;19960;-86
2022/08/11 05:05:52;;;;;;;;;;;;;;;18.17;56.83;100166.63;5045896;28;19929;-83
2022/08/11 05:08:28;;;;;;;;;;;;;;;18.32;56.81;100159.56;5052426;28;19975;-86
2022/08/11 05:11:16;;;;;;;;;;;;;;;18.50;56.63;100170.00;5048489;28;19940;-85
2022/08/11 05:37:03;;;;;;;;;;;;;;;19.23;54.41;100183.56;5037409;28;19929;-84
2022/08/11 05:57:33;;;;;;;;;;;;;;;20.16;53.99;100167.84;5066389;28;19997;-85
2022/08/11 06:00:17;;;;;;;;;;;;;;;20.26;53.03;100167.81;5052493;28;19936;-85
2022/08/11 06:02:54;;;;;;;;;;;;;;;20.22;53.25;100172.19;5051988;28;19974;-84
2022/08/11 06:05:24;;;;;;;;;;;;;;;20.21;52.64;100170.56;5051269;28;19929;-85
2022/08/11 06:07:53;;;;;;;;;;;;;;;20.29;52.47;100164.50;5052028;28;19975;-86
2022/08/11 06:10:28;;;;;;;;;;;;;;;20.37;52.09;100168.56;5051051;28;19929;-84
2022/08/11 06:12:56;;;;;;;;;;;;;;;20.52;52.00;100173.97;5051156;28;19943;-86
2022/08/11 06:15:23;;;;;;;;;;;;;;;20.61;51.86;100166.03;5035398;28;19971;-85
2022/08/11 06:17:50;;;;;;;;;;;;;;;20.70;51.28;100175.28;5035005;28;20028;-85
2022/08/11 06:20:18;;;;;;;;;;;;;;;20.74;51.35;100173.63;5035186;28;19936;-84
2022/08/11 06:22:46;;;;;;;;;;;;;;;20.87;51.18;100171.34;5051613;28;19929;-84
2022/08/11 06:25:18;;;;;;;;;;;;;;;20.86;50.66;100169.69;5052125;28;19939;-84
2022/08/11 06:27:46;;;;;;;;;;;;;;;20.89;50.52;100172.72;5051808;28;19951;-85
2022/08/11 06:30:17;;;;;;;;;;;;;;;21.01;50.54;100180.56;5050956;28;19934;-84
2022/08/11 06:32:44;;;;;;;;;;;;;;;21.14;49.56;100179.94;5051262;28;20414;-84
2022/08/11 06:35:26;;;;;;;;;;;;;;;21.19;48.48;100176.31;5052205;28;19933;-85
2022/08/11 06:38:07;;;;;;;;;;;;;;;21.21;48.76;100174.94;5052359;28;19928;-86
2022/08/11 06:40:40;;;;;;;;;;;;;;;21.25;49.06;100177.13;5034956;28;20402;-83
2022/08/11 06:43:15;;;;;;;;;;;;;;;21.36;49.08;100184.16;5034729;28;20599;-83
2022/08/11 06:45:48;;;;;;;;;;;;;;;21.46;48.81;100177.78;5032852;28;19928;-85
2022/08/11 06:48:16;;;;;;;;;;;;;;;21.41;48.19;100173.16;5051256;28;19933;-85
2022/08/11 06:51:11;;;;;;;;;;;;;;;21.45;48.25;100179.72;5043445;28;20028;-85
2022/08/11 06:53:44;;;;;;;;;;;;;;;21.50;48.08;100179.69;5051789;28;19929;-84
2022/08/11 07:02:36;;;;;;;;;;;;;;;21.85;47.34;100183.16;5051681;28;19929;-85
2022/08/11 07:05:36;;;;;;;;;;;;;;;21.81;47.19;100173.88;5050456;28;20028;-84
2022/08/11 07:16:38;;;;;;;;;;;;;;;22.07;45.23;100163.41;5051187;28;19964;-84
2022/08/11 07:30:36;;;;;;;;;;;;;;;22.42;43.09;100172.38;5051180;28;20446;-85
2022/08/11 07:33:06;;;;;;;;;;;;;;;22.49;43.10;100159.88;5049621;28;19933;-85
2022/08/11 07:35:34;;;;;;;;;;;;;;;22.54;43.21;100160.94;5050018;28;19936;-85
2022/08/11 07:38:04;;;;;;;;;;;;;;;22.48;43.23;100163.78;5050979;28;19929;-85
2022/08/11 07:40:33;;;;;;;;;;;;;;;22.63;42.94;100161.91;5050817;28;20043;-84
2022/08/11 07:43:00;;;;;;;;;;;;;;;22.84;42.51;100163.25;5049397;28;20399;-85
2022/08/11 07:53:47;;;;;;;;;;;;;;;23.26;40.29;100174.47;5052688;28;20481;-86
2022/08/11 07:56:34;;;;;;;;;;;;;;;23.31;39.78;100177.13;5050921;28;19947;-86
2022/08/11 08:19:24;;;;;;;;;;;;;;;24.44;38.57;100179.44;5053706;28;20023;-85
2022/08/11 08:21:51;;;;;;;;;;;;;;;24.85;38.34;100172.22;5052404;28;20040;-86
2022/08/11 08:24:21;;;;;;;;;;;;;;;25.34;38.23;100176.00;5052763;28;19935;-85
2022/08/11 08:26:58;;;;;;;;;;;;;;;25.69;37.50;100177.03;5036918;28;20002;-86
2022/08/11 08:32:22;;;;;;;;;;;;;;;25.84;35.81;100172.25;5054187;28;19928;-86
2022/08/11 08:34:49;;;;;;;;;;;;;;;26.10;35.36;100173.19;5036224;28;20518;-85
2022/08/11 08:37:20;;;;;;;;;;;;;;;26.44;34.94;100168.91;5053271;28;20448;-85
2022/08/11 08:40:08;;;;;;;;;;;;;;;26.80;33.88;100176.13;5053051;28;19935;-86
2022/08/11 08:42:40;;;;;;;;;;;;;;;26.98;32.97;100165.88;5052669;28;20307;-85
2022/08/11 08:45:12;;;;;;;;;;;;;;;27.32;32.98;100170.59;5053912;28;19928;-86
2022/08/11 08:47:46;;;;;;;;;;;;;;;27.17;32.64;100166.34;5052410;28;20445;-84
2022/08/11 08:50:21;;;;;;;;;;;;;;;27.34;32.21;100162.75;5053783;28;19935;-84
2022/08/11 08:52:55;;;;;;;;;;;;;;;27.47;31.99;100160.13;5052608;28;19951;-85
2022/08/11 08:55:22;;;;;;;;;;;;;;;27.78;31.75;100168.22;5036302;28;19982;-85
2022/08/11 08:57:50;;;;;;;;;;;;;;;28.04;31.63;100166.16;5053788;28;20486;-86
2022/08/11 09:00:17;;;;;;;;;;;;;;;28.05;31.32;100170.53;5053662;28;19936;-85
2022/08/11 09:02:49;;;;;;;;;;;;;;;28.20;31.34;100163.63;5053017;28;20019;-85
2022/08/11 09:05:16;;;;;;;;;;;;;;;28.39;30.83;100159.63;5052656;28;19929;-85
2022/08/11 09:07:46;;;;;;;;;;;;;;;28.70;30.12;100162.84;5052594;28;19975;-86
2022/08/11 09:10:14;;;;;;;;;;;;;;;28.43;29.79;100163.31;5053096;28;19998;-85
2022/08/11 09:12:52;;;;;;;;;;;;;;;28.30;30.93;100159.66;5037249;28;19929;-86
2022/08/11 09:15:19;;;;;;;;;;;;;;;28.36;30.87;100163.88;5052560;28;20019;-85
2022/08/11 09:17:47;;;;;;;;;;;;;;;28.78;31.07;100166.69;5052783;28;19929;-85
2022/08/11 09:20:23;;;;;;;;;;;;;;;28.81;30.20;100157.69;5052596;28;19929;-84
2022/08/11 09:28:44;;;;;;;;;;;;;;;29.72;28.48;100157.81;5053518;28;19928;-85
2022/08/11 09:31:34;;;;;;;;;;;;;;;29.92;28.55;100152.53;5052593;28;19929;-85
2022/08/11 09:34:05;;;;;;;;;;;;;;;30.29;28.26;100152.56;5052285;28;19935;-84
2022/08/11 09:42:04;;;;;;;;;;;;;;;30.16;28.29;100146.16;5053161;28;20314;-85
2022/08/11 09:44:51;;;;;;;;;;;;;;;30.44;28.39;100151.84;5052133;28;20476;-85
2022/08/11 09:47:25;;;;;;;;;;;;;;;30.77;28.00;100142.47;5051867;28;19932;-86
2022/08/11 09:49:55;;;;;;;;;;;;;;;30.65;27.76;100141.34;5051167;28;20427;-85
2022/08/11 09:52:21;;;;;;;;;;;;;;;30.63;28.01;100140.06;5051446;28;19935;-85
2022/08/11 09:54:49;;;;;;;;;;;;;;;30.66;28.15;100142.97;5051285;28;19983;-85
2022/08/11 10:00:07;;;;;;;;;;;;;;;31.26;27.24;100137.53;5067536;28;19928;-86
2022/08/11 10:02:40;;;;;;;;;;;;;;;31.91;26.16;100134.44;5052742;28;19928;-86
2022/08/11 10:07:52;;;;;;;;;;;;;;;32.54;24.93;100130.78;5053188;28;19929;-85
2022/08/11 10:10:22;;;;;;;;;;;;;;;32.52;25.14;100127.53;5050902;28;19936;-85
2022/08/11 10:12:58;;;;;;;;;;;;;;;32.56;24.67;100133.19;5051584;28;19928;-84
2022/08/11 10:15:37;;;;;;;;;;;;;;;32.32;24.69;100134.25;5050947;28;19929;-85
2022/08/11 10:20:54;;;;;;;;;;;;;;;32.39;24.59;100123.22;5051819;28;20240;-86
2022/08/11 10:35:25;;;;;;;;;;;;;;;33.32;23.66;100122.38;5066922;28;19978;-86
2022/08/11 10:37:54;;;;;;;;;;;;;;;33.11;23.56;100113.59;5050331;28;19929;-84
2022/08/11 10:40:39;;;;;;;;;;;;;;;33.33;23.78;100112.00;5050747;28;19935;-83
2022/08/11 10:43:09;;;;;;;;;;;;;;;33.87;23.09;100110.97;5051427;28;19929;-85
2022/08/11 10:48:23;;;;;;;;;;;;;;;34.31;23.04;100116.88;5051835;28;19929;-85
2022/08/11 10:59:12;;;;;;;;;;;;;;;33.73;22.36;100099.53;5050116;28;20031;-85
2022/08/11 11:01:42;;;;;;;;;;;;;;;33.82;22.36;100103.69;4698527;28;10000541;-82
2022/08/11 11:04:16;;;;;;;;;;;;;;;34.14;21.86;100105.41;5030104;28;20024;-83
2022/08/11 11:06:52;;;;;;;;;;;;;;;34.30;21.65;100098.44;5046292;28;19975;-81
2022/08/11 11:09:31;;;;;;;;;;;;;;;34.20;21.74;100101.09;5045332;28;20300;-81
2022/08/11 11:18:00;;;;;;;;;;;;;;;33.73;20.54;100089.16;5044442;28;19929;-82
2022/08/11 11:20:32;;;;;;;;;;;;;;;33.90;20.39;100082.19;5047362;28;20040;-81
2022/08/11 11:23:18;;;;;;;;;;;;;;;34.04;20.06;100088.03;5047503;28;19929;-80
2022/08/11 11:26:12;;;;;;;;;;;;;;;33.27;20.89;100082.72;5046248;28;19933;-81
2022/08/11 11:29:03;;;;;;;;;;;;;;;33.19;21.12;100085.38;5046720;28;19959;-84
2022/08/11 11:31:51;;;;;;;;;;;;;;;33.71;21.11;100079.53;5046117;28;19936;-82
2022/08/11 11:34:30;;;;;;;;;;;;;;;34.30;21.25;100078.00;5043678;28;19987;-82
2022/08/11 11:37:15;;;;;;;;;;;;;;;34.25;21.12;100081.16;5044630;28;19936;-81
2022/08/11 11:39:42;;;;;;;;;;;;;;;34.22;21.33;100077.09;5048931;28;19960;-79
2022/08/11 11:42:13;;;;;;;;;;;;;;;34.85;20.87;100075.53;5048150;28;20553;-81
2022/08/11 11:44:42;;;;;;;;;;;;;;;34.83;20.90;100071.50;5048294;28;20359;-81
2022/08/11 11:47:10;;;;;;;;;;;;;;;35.24;20.58;100079.97;5048775;28;20446;-81
2022/08/11 11:49:39;;;;;;;;;;;;;;;35.00;20.39;100084.13;5048746;28;20028;-81
2022/08/11 11:52:07;;;;;;;;;;;;;;;35.38;20.32;100071.69;5053182;28;20411;-82
2022/08/11 11:54:35;;;;;;;;;;;;;;;35.36;19.92;100066.47;5053572;28;19975;-81
2022/08/11 12:02:39;;;;;;;;;;;;;;;36.02;19.60;100057.34;5054477;28;19979;-82
2022/08/11 12:05:07;;;;;;;;;;;;;;;36.18;19.68;100063.50;5054078;28;19928;-82
2022/08/11 12:13:39;;;;;;;;;;;;;;;35.99;19.31;100061.75;5049220;28;19939;-81
2022/08/11 12:13:39;;;;;;;;;;;;;;;35.40;19.63;100055.28;5038749;28;20027;-81
2022/08/11 12:16:07;;;;;;;;;;;;;;;36.09;19.13;100054.63;5052521;28;19929;-80
2022/08/11 12:18:55;;;;;;;;;;;;;;;35.38;19.40;100058.47;5052659;28;19928;-81
2022/08/11 12:21:25;;;;;;;;;;;;;;;35.11;19.61;100048.59;5054143;28;19983;-81
2022/08/11 12:30:08;;;;;;;;;;;;;;;37.17;18.17;100057.88;5052324;28;19929;-81
2022/08/11 12:32:37;;;;;;;;;;;;;;;37.30;17.94;100050.66;5052860;28;19963;-82
2022/08/11 12:35:10;;;;;;;;;;;;;;;37.47;18.18;100052.66;5036836;28;20422;-81
2022/08/11 12:37:40;;;;;;;;;;;;;;;37.67;18.24;100055.91;5051991;28;19935;-81
2022/08/11 12:46:11;;;;;;;;;;;;;;;37.78;17.95;100055.91;5052129;28;20067;-82
2022/08/11 12:54:50;;;;;;;;;;;;;;;38.17;17.57;100044.56;5050956;28;20008;-82
2022/08/11 13:05:56;;;;;;;;;;;;;;;38.51;16.86;100046.06;5051452;28;19936;-82
2022/08/11 13:08:23;;;;;;;;;;;;;;;38.08;16.86;100037.75;5050574;28;20307;-81
2022/08/11 13:13:41;;;;;;;;;;;;;;;37.79;17.52;100040.59;5051881;28;19940;-82
2022/08/11 13:16:22;;;;;;;;;;;;;;;39.03;16.47;100045.41;5051617;28;20407;-81
2022/08/11 13:18:49;;;;;;;;;;;;;;;39.31;16.47;100038.75;5052187;28;20023;-82
2022/08/11 13:21:19;;;;;;;;;;;;;;;39.94;16.01;100030.16;5051653;28;19974;-82
2022/08/11 13:23:53;;;;;;;;;;;;;;;39.69;16.37;100024.72;5051431;28;19929;-80
2022/08/11 13:26:28;;;;;;;;;;;;;;;38.80;16.66;100033.44;5051635;28;19929;-83
2022/08/11 13:29:25;;;;;;;;;;;;;;;38.81;16.88;100032.19;5051661;28;19974;-81
2022/08/11 13:31:53;;;;;;;;;;;;;;;39.29;16.60;100029.91;5048591;28;19929;-82
2022/08/11 13:34:20;;;;;;;;;;;;;;;39.74;15.98;100027.91;5052744;28;20415;-83
2022/08/11 13:36:51;;;;;;;;;;;;;;;40.15;15.69;100023.44;5065041;28;20024;-81
2022/08/11 13:39:19;;;;;;;;;;;;;;;40.61;15.93;100027.72;5051067;28;20454;-81
2022/08/11 13:41:50;;;;;;;;;;;;;;;40.46;15.68;100021.47;5048110;28;19928;-81
2022/08/11 13:44:17;;;;;;;;;;;;;;;40.24;15.58;100026.63;5052512;28;19982;-82
2022/08/11 13:46:57;;;;;;;;;;;;;;;39.64;15.86;100023.94;5050052;28;19929;-81
2022/08/11 13:49:25;;;;;;;;;;;;;;;38.93;16.72;100028.13;5050195;28;19929;-83
2022/08/11 13:51:52;;;;;;;;;;;;;;;39.46;16.11;100031.81;5050846;28;19939;-82
2022/08/11 13:54:23;;;;;;;;;;;;;;;40.16;16.00;100019.38;5050914;28;19935;-83
2022/08/11 13:56:52;;;;;;;;;;;;;;;40.31;15.54;100018.00;5050396;28;19936;-83
2022/08/11 13:59:38;;;;;;;;;;;;;;;40.77;15.71;100019.47;5044952;28;19935;-82
2022/08/11 14:02:20;;;;;;;;;;;;;;;40.76;15.17;100006.53;5053041;28;20019;-82
2022/08/11 14:04:56;;;;;;;;;;;;;;;40.38;15.67;100009.44;5050379;28;20418;-83
2022/08/11 14:07:33;;;;;;;;;;;;;;;40.05;15.57;99999.75;5047364;28;19940;-83
2022/08/11 14:10:00;;;;;;;;;;;;;;;39.53;16.02;99999.84;5033498;28;19975;-82
2022/08/11 14:15:20;;;;;;;;;;;;;;;39.84;15.72;100000.78;5049872;28;19929;-81
2022/08/11 14:18:00;;;;;;;;;;;;;;;39.62;16.03;99998.16;5051085;28;20418;-82
2022/08/11 14:22:05;;;;;;;;;;;;;;;37.85;17.06;100007.97;5048404;28;20307;-82
2022/08/11 14:23:15;;;;;;;;;;;;;;;36.23;18.80;100000.50;5049782;28;20040;-81
2022/08/11 14:26:22;;;;;;;;;;;;;;;34.69;19.92;99996.44;5050418;28;19990;-82
2022/08/11 14:28:32;;;;;;;;;;;;;;;36.11;18.95;99998.88;5051343;28;19971;-82
2022/08/11 14:31:08;;;;;;;;;;;;;;;36.91;18.34;99995.09;5034852;28;19936;-82
2022/08/11 14:33:37;;;;;;;;;;;;;;;37.72;17.47;99990.72;5051321;28;19976;-84
2022/08/11 14:36:24;;;;;;;;;;;;;;;38.28;17.49;99985.31;5048791;28;19955;-81
2022/08/11 14:38:54;;;;;;;;;;;;;;;38.76;16.99;99990.31;5046318;28;19984;-81
2022/08/11 14:47:14;;;;;;;;;;;;;;;38.08;17.28;99984.22;5050961;28;20094;-84
2022/08/11 14:49:53;;;;;;;;;;;;;;;38.33;17.29;99979.25;5034119;28;20315;-84
2022/08/11 14:52:58;;;;;;;;;;;;;;;38.12;17.39;99983.00;5050425;28;20335;-85
2022/08/11 14:58:16;;;;;;;;;;;;;;;37.47;17.63;99975.84;5050610;28;19929;-83
2022/08/11 15:00:45;;;;;;;;;;;;;;;37.22;17.91;99976.69;5049626;28;19982;-84
2022/08/11 15:03:13;;;;;;;;;;;;;;;37.25;17.73;99967.44;5048684;28;20038;-84
2022/08/11 15:05:50;;;;;;;;;;;;;;;36.77;18.41;99969.81;5051158;28;19974;-85
2022/08/11 15:14:06;;;;;;;;;;;;;;;36.37;19.05;99966.06;5049592;28;19968;-84
2022/08/11 15:19:20;;;;;;;;;;;;;;;37.06;18.19;99968.63;5050681;28;19972;-84
2022/08/11 15:24:43;;;;;;;;;;;;;;;37.20;17.95;99967.03;5051407;28;19929;-85
2022/08/11 15:38:35;;;;;;;;;;;;;;;35.04;19.80;99969.97;5034505;28;20035;-82
2022/08/11 15:46:33;;;;;;;;;;;;;;;29.86;24.88;99956.38;5052915;28;20311;-82
2022/08/11 15:49:04;;;;;;;;;;;;;;;29.44;25.17;99967.75;5054124;28;19933;-81
2022/08/11 15:51:39;;;;;;;;;;;;;;;29.09;25.16;99969.03;4701776;28;10000412;-81
2022/08/11 15:54:07;;;;;;;;;;;;;;;28.69;25.94;99971.56;5050601;28;20331;-83
2022/08/11 15:56:36;;;;;;;;;;;;;;;28.18;26.89;99977.25;5049554;28;19929;-84
2022/08/11 16:04:55;;;;;;;;;;;;;;;28.38;26.81;99967.25;5047292;28;19929;-82
2022/08/11 16:07:26;;;;;;;;;;;;;;;28.25;27.17;99969.16;5043930;28;19929;-83
2022/08/11 16:09:57;;;;;;;;;;;;;;;28.00;27.30;99967.41;5046692;28;19982;-84
2022/08/11 16:12:30;;;;;;;;;;;;;;;27.73;28.09;99963.19;5049961;28;19929;-82
2022/08/11 16:17:51;;;;;;;;;;;;;;;27.10;29.25;99968.53;5049123;28;20438;-86
2022/08/11 16:20:21;;;;;;;;;;;;;;;26.86;29.42;99969.09;5045611;28;19951;-84
2022/08/11 16:22:54;;;;;;;;;;;;;;;26.29;31.28;99961.84;5026954;28;20470;-82
2022/08/11 16:25:29;;;;;;;;;;;;;;;25.94;31.09;99962.63;5047511;28;19928;-84
2022/08/11 16:28:17;;;;;;;;;;;;;;;25.72;32.37;99962.72;5047430;28;19994;-84
2022/08/11 16:30:45;;;;;;;;;;;;;;;25.32;32.71;99964.75;5046704;28;19928;-81
2022/08/11 16:33:12;;;;;;;;;;;;;;;25.02;33.64;99973.53;5047610;28;19937;-82
2022/08/11 16:38:47;;;;;;;;;;;;;;;24.78;34.11;99964.78;5038653;28;19967;-82
2022/08/11 16:41:15;;;;;;;;;;;;;;;24.88;33.70;99965.34;5041822;28;19933;-85
2022/08/11 16:46:58;;;;;;;;;;;;;;;24.77;34.53;99968.69;5038029;28;20407;-83
2022/08/11 16:49:34;;;;;;;;;;;;;;;24.51;35.07;99965.75;5050324;28;19932;-84
2022/08/11 16:52:06;;;;;;;;;;;;;;;24.34;35.92;99966.44;5043215;28;19929;-82
2022/08/11 16:54:34;;;;;;;;;;;;;;;24.22;36.11;99965.03;5040216;28;19936;-82
2022/08/11 17:00:14;;;;;;;;;;;;;;;24.06;36.01;99965.72;5037829;28;20380;-84
2022/08/11 17:14:12;;;;;;;;;;;;;;;23.57;36.76;99973.63;5036053;28;19975;-83
2022/08/11 17:16:41;;;;;;;;;;;;;;;23.37;37.02;99977.63;5051796;28;20465;-85
2022/08/11 17:19:15;;;;;;;;;;;;;;;23.22;38.64;99984.25;5033754;28;20036;-85
2022/08/11 17:24:50;;;;;;;;;;;;;;;22.93;41.76;99979.78;5045665;28;20010;-87
2022/08/11 17:27:18;;;;;;;;;;;;;;;22.72;42.78;99989.53;5012013;28;19929;-87
2022/08/11 17:29:53;;;;;;;;;;;;;;;22.45;43.75;99988.31;4702492;28;10000004;-86
2022/08/11 17:35:29;;;;;;;;;;;;;;;22.10;44.48;99989.66;5047054;28;19975;-88
2022/08/11 17:38:09;;;;;;;;;;;;;;;22.08;44.54;99984.47;5048030;28;19929;-84
2022/08/11 17:40:37;;;;;;;;;;;;;;;21.98;45.20;99984.59;5038064;28;19967;-85
2022/08/11 17:48:40;;;;;;;;;;;;;;;21.64;46.56;99977.34;5048672;28;19932;-86
2022/08/11 17:59:50;;;;;;;;;;;;;;;21.62;46.71;99990.59;5048108;28;19986;-83
2022/08/11 17:59:51;;;;;;;;;;;;;;;21.14;48.47;100001.53;5048188;28;20291;-83
2022/08/11 18:05:12;;;;;;;;;;;;;;;20.83;49.05;100000.19;5062703;28;19967;-85
